Time;durP1;ratioP1;P1;durP2;ratioP2;P2;SDS_P1;SDS_P2;PMS_P1;PMS_P2;Temp;Humidity;BMP_temperature;BMP_pressure;BME280_temperature;BME280_humidity;BME280_pressure;Samples;Min_cycle;Max_cycle;Signal;HPM_P1;HPM_P2
2020/12/02 00:13:23;;;;;;;16.63;11.20;;;3.70;90.00;;;;;;6122091;23;20144;-71
2020/12/02 00:15:49;;;;;;;14.75;11.70;;;3.70;90.10;;;;;;6121738;23;20599;-71
2020/12/02 00:25:00;;;;;;;15.18;10.73;;;3.60;89.90;;;;;;6121111;23;20206;-71
2020/12/02 00:27:33;;;;;;;13.52;9.50;;;3.60;89.50;;;;;;6121823;23;20164;-72
2020/12/02 00:33:25;;;;;;;17.38;10.43;;;3.60;89.60;;;;;;6121594;23;20155;-72
2020/12/02 00:35:53;;;;;;;16.77;11.80;;;3.60;89.80;;;;;;6121513;23;20179;-72
2020/12/02 00:38:23;;;;;;;14.77;10.80;;;3.60;89.60;;;;;;6121010;23;20624;-72
2020/12/02 00:40:51;;;;;;;17.67;11.35;;;3.60;89.80;;;;;;6119293;23;20234;-71
2020/12/02 00:43:23;;;;;;;18.48;12.35;;;3.60;90.00;;;;;;6120973;23;20189;-71
2020/12/02 00:46:35;;;;;;;14.52;10.90;;;3.60;90.10;;;;;;6121214;23;20153;-71
2020/12/02 00:49:03;;;;;;;16.73;11.43;;;3.60;90.00;;;;;;6121832;23;20202;-71
2020/12/02 00:51:30;;;;;;;17.73;11.60;;;3.60;90.10;;;;;;6138605;23;20179;-72
2020/12/02 00:53:57;;;;;;;20.27;11.68;;;3.50;90.00;;;;;;6121369;23;20568;-71
2020/12/02 00:56:24;;;;;;;20.65;13.55;;;3.60;90.10;;;;;;6121523;23;20153;-72
2020/12/02 01:04:47;;;;;;;18.10;12.45;;;3.60;90.10;;;;;;6121546;23;20191;-71
2020/12/02 01:10:35;;;;;;;20.75;14.18;;;3.50;90.30;;;;;;6120534;23;20136;-71
2020/12/02 01:13:04;;;;;;;19.67;12.70;;;3.50;90.40;;;;;;6120852;23;20583;-71
2020/12/02 01:15:31;;;;;;;20.35;12.10;;;3.50;90.50;;;;;;6120762;23;20514;-71
2020/12/02 01:18:22;;;;;;;26.42;13.60;;;3.50;90.30;;;;;;6121577;23;20501;-72
2020/12/02 01:24:06;;;;;;;16.15;11.68;;;3.50;90.50;;;;;;6120428;23;20203;-71
2020/12/02 01:26:39;;;;;;;28.98;14.35;;;3.40;90.60;;;;;;6115992;23;20179;-71
2020/12/02 01:32:30;;;;;;;17.52;12.20;;;3.50;90.90;;;;;;6120607;23;20148;-71
2020/12/02 01:34:56;;;;;;;19.15;13.02;;;3.50;90.90;;;;;;6120637;23;20175;-71
2020/12/02 01:37:37;;;;;;;17.42;12.07;;;3.50;90.80;;;;;;6120523;23;20165;-71
2020/12/02 01:43:57;;;;;;;16.95;12.60;;;3.50;90.40;;;;;;6120713;23;20268;-71
2020/12/02 02:08:52;;;;;;;15.23;11.95;;;3.60;90.30;;;;;;6277584;22;20548;-71
2020/12/02 02:14:48;;;;;;;13.98;11.27;;;3.60;90.30;;;;;;6276784;22;20132;-72
2020/12/02 02:17:14;;;;;;;15.90;10.68;;;3.60;90.40;;;;;;6277385;22;20180;-71
2020/12/02 02:23:05;;;;;;;15.02;10.80;;;3.60;90.50;;;;;;6277321;22;20180;-71
2020/12/02 02:25:34;;;;;;;18.20;12.43;;;3.60;90.20;;;;;;6276789;22;20157;-71
2020/12/02 02:28:57;;;;;;;18.15;12.32;;;3.60;90.20;;;;;;6277621;22;20149;-71
2020/12/02 02:34:49;;;;;;;19.48;12.73;;;3.60;90.00;;;;;;6277034;22;20465;-71
2020/12/02 02:37:19;;;;;;;15.32;11.40;;;3.60;90.00;;;;;;6277661;22;20196;-71
2020/12/02 02:43:09;;;;;;;15.00;10.50;;;3.60;90.10;;;;;;6276294;22;21228;-71
2020/12/02 02:45:48;;;;;;;15.30;10.73;;;3.60;90.10;;;;;;6277049;22;20152;-71
2020/12/02 02:48:15;;;;;;;20.27;12.05;;;3.60;90.10;;;;;;6277375;22;20146;-71
2020/12/02 02:54:04;;;;;;;13.35;10.23;;;3.60;90.10;;;;;;6276546;22;20187;-71
2020/12/02 02:56:31;;;;;;;16.27;11.32;;;3.60;90.00;;;;;;6166518;22;20195;-71
2020/12/02 02:59:29;;;;;;;15.55;11.40;;;3.60;90.00;;;;;;6152049;23;20269;-71
2020/12/02 03:01:56;;;;;;;15.63;11.55;;;3.60;90.10;;;;;;6151169;23;20164;-71
2020/12/02 03:04:26;;;;;;;15.05;9.27;;;3.50;90.00;;;;;;6151197;23;20223;-72
2020/12/02 03:07:37;;;;;;;15.45;9.65;;;3.60;90.20;;;;;;6151979;23;20152;-71
2020/12/02 03:10:05;;;;;;;14.45;9.60;;;3.60;90.00;;;;;;6151297;23;20160;-71
2020/12/02 03:15:54;;;;;;;14.68;10.15;;;3.50;89.50;;;;;;6151674;23;20658;-71
2020/12/02 03:18:23;;;;;;;13.15;8.88;;;3.50;88.60;;;;;;6151199;23;20201;-71
2020/12/02 03:20:55;;;;;;;13.15;9.50;;;3.40;87.90;;;;;;6151918;23;20205;-71
2020/12/02 03:23:56;;;;;;;13.80;10.55;;;3.40;87.70;;;;;;6151839;23;20180;-71
2020/12/02 03:26:25;;;;;;;16.05;9.75;;;3.30;88.40;;;;;;6151519;23;20230;-71
2020/12/02 03:32:14;;;;;;;16.83;10.93;;;3.20;87.50;;;;;;6151546;23;20142;-71
2020/12/02 03:38:04;;;;;;;16.77;10.60;;;3.00;87.70;;;;;;6151079;23;20312;-71
2020/12/02 03:40:30;;;;;;;20.50;12.38;;;2.90;87.70;;;;;;6151211;23;20537;-71
2020/12/02 03:42:58;;;;;;;19.60;11.57;;;2.90;88.30;;;;;;6151357;23;20237;-71
2020/12/02 03:45:25;;;;;;;22.00;11.73;;;2.80;88.40;;;;;;6151221;23;20163;-71
2020/12/02 03:47:55;;;;;;;18.92;11.95;;;2.80;88.40;;;;;;6151453;23;20215;-71
2020/12/02 03:50:22;;;;;;;18.05;11.90;;;2.80;88.50;;;;;;6150862;23;20163;-72
2020/12/02 03:52:50;;;;;;;22.25;12.93;;;2.70;88.90;;;;;;6151462;23;20231;-71
2020/12/02 03:58:39;;;;;;;25.65;13.38;;;2.80;89.70;;;;;;6150994;23;20146;-71
2020/12/02 04:01:28;;;;;;;24.83;15.10;;;2.80;90.00;;;;;;6151328;23;20190;-71
2020/12/02 04:03:54;;;;;;;26.52;14.00;;;2.80;89.90;;;;;;6151813;23;20186;-72
2020/12/02 04:06:45;;;;;;;20.33;13.15;;;2.90;89.90;;;;;;6150971;23;20205;-72
2020/12/02 04:09:12;;;;;;;25.75;14.18;;;2.90;89.80;;;;;;6151863;23;20460;-71
2020/12/02 04:11:38;;;;;;;24.35;12.77;;;2.90;89.60;;;;;;6151513;23;20580;-72
2020/12/02 04:17:28;;;;;;;23.42;14.57;;;3.00;88.60;;;;;;6151030;23;20147;-71
2020/12/02 04:20:24;;;;;;;21.25;13.20;;;3.00;88.30;;;;;;6151515;23;20185;-71
2020/12/02 04:26:13;;;;;;;24.08;14.00;;;3.00;87.60;;;;;;6151642;23;20257;-71
2020/12/02 04:32:04;;;;;;;28.08;15.30;;;3.00;87.20;;;;;;6151447;23;20613;-71
2020/12/02 04:34:32;;;;;;;27.30;16.05;;;3.00;86.80;;;;;;6150699;23;20621;-71
2020/12/02 04:36:59;;;;;;;24.13;14.55;;;3.00;87.10;;;;;;6150999;23;20160;-71
2020/12/02 04:39:26;;;;;;;27.05;14.10;;;3.00;87.10;;;;;;6151617;23;20468;-72
2020/12/02 04:42:26;;;;;;;24.75;13.95;;;3.00;87.10;;;;;;6151751;23;20152;-71
2020/12/02 04:44:55;;;;;;;26.45;14.48;;;3.00;86.80;;;;;;6151637;23;20148;-71
2020/12/02 04:47:33;;;;;;;24.77;15.45;;;2.90;86.20;;;;;;6151690;23;20152;-72
2020/12/02 04:50:04;;;;;;;30.55;18.10;;;2.90;85.90;;;;;;6151462;23;20152;-71
2020/12/02 04:52:30;;;;;;;25.02;14.68;;;2.80;85.10;;;;;;6150781;23;20210;-72
2020/12/02 04:54:57;;;;;;;25.13;14.40;;;2.80;84.40;;;;;;6150785;23;20177;-71
2020/12/02 04:57:23;;;;;;;27.73;15.73;;;2.70;83.90;;;;;;6151546;23;20152;-72
2020/12/02 05:03:17;;;;;;;23.52;13.85;;;2.70;84.20;;;;;;6150691;23;20210;-71
2020/12/02 05:12:57;;;;;;;28.23;16.25;;;2.60;84.60;;;;;;6151193;23;20159;-71
2020/12/02 05:15:27;;;;;;;27.55;15.32;;;2.50;84.40;;;;;;6150896;23;20156;-71
2020/12/02 05:18:23;;;;;;;26.08;17.92;;;2.50;83.50;;;;;;6151988;23;20152;-71
2020/12/02 05:21:47;;;;;;;27.73;17.45;;;2.50;83.80;;;;;;6133686;23;20160;-71
2020/12/02 05:24:19;;;;;;;23.92;16.58;;;2.40;83.40;;;;;;6152207;23;20183;-71
2020/12/02 05:33:23;;;;;;;28.20;16.60;;;2.30;83.50;;;;;;6152085;23;20159;-71
2020/12/02 05:42:37;;;;;;;32.05;18.73;;;2.20;83.90;;;;;;6151819;23;20159;-71
2020/12/02 05:48:21;;;;;;;30.92;19.40;;;2.20;84.70;;;;;;6152103;23;20155;-71
2020/12/02 05:54:13;;;;;;;33.60;19.05;;;2.30;83.90;;;;;;6151861;23;20151;-71
2020/12/02 05:56:53;;;;;;;30.48;18.35;;;2.30;83.70;;;;;;6148563;23;20180;-71
2020/12/02 06:02:42;;;;;;;34.05;19.08;;;2.40;83.60;;;;;;6152163;23;20143;-71
2020/12/02 06:05:58;;;;;;;34.10;18.20;;;2.50;83.90;;;;;;6152509;23;20159;-71
2020/12/02 06:08:39;;;;;;;30.00;17.48;;;2.50;83.30;;;;;;6151944;23;20188;-71
2020/12/02 06:11:40;;;;;;;28.88;18.05;;;2.50;83.50;;;;;;6152514;23;20151;-71
2020/12/02 06:17:30;;;;;;;32.20;19.55;;;2.60;83.40;;;;;;6149904;23;20175;-71
2020/12/02 06:19:59;;;;;;;29.98;17.75;;;2.60;83.10;;;;;;6150120;23;20160;-71
2020/12/02 06:25:53;;;;;;;38.50;18.40;;;2.60;83.10;;;;;;6151862;23;20212;-71
2020/12/02 06:28:49;;;;;;;35.13;19.25;;;2.60;83.40;;;;;;6151662;23;20474;-71
2020/12/02 06:32:06;;;;;;;36.75;20.17;;;2.60;83.20;;;;;;6152082;23;20186;-71
2020/12/02 06:34:42;;;;;;;36.90;20.27;;;2.50;82.80;;;;;;6150575;23;20255;-71
2020/12/02 06:37:20;;;;;;;30.55;18.02;;;2.50;83.30;;;;;;6141749;23;20202;-72
2020/12/02 06:39:54;;;;;;;31.38;20.08;;;2.50;82.70;;;;;;6149209;23;20159;-71
2020/12/02 06:42:30;;;;;;;36.45;21.20;;;2.40;82.90;;;;;;6120235;23;20176;-71
2020/12/02 06:45:29;;;;;;;32.22;18.88;;;2.30;82.80;;;;;;6151678;23;20704;-71
2020/12/02 07:02:20;;;;;;;32.85;18.48;;;2.30;84.00;;;;;;6151502;23;20586;-71
2020/12/02 07:05:21;;;;;;;40.50;22.02;;;2.40;84.30;;;;;;6152353;23;20262;-71
2020/12/02 07:11:38;;;;;;;33.97;19.20;;;2.40;83.80;;;;;;6148483;23;20688;-71
2020/12/02 07:18:04;;;;;;;37.35;21.02;;;2.40;83.50;;;;;;6151763;23;20472;-70
2020/12/02 07:27:04;;;;;;;41.00;23.63;;;2.30;83.00;;;;;;6150383;23;20255;-71
2020/12/02 07:29:33;;;;;;;36.60;20.85;;;2.30;83.40;;;;;;6145857;23;20159;-71
2020/12/02 07:32:23;;;;;;;35.97;22.95;;;2.20;82.50;;;;;;6144418;23;20696;-71
2020/12/02 07:35:16;;;;;;;44.03;24.33;;;2.30;83.20;;;;;;6149833;23;20148;-71
2020/12/02 07:37:44;;;;;;;40.75;22.45;;;2.30;82.50;;;;;;6148733;23;20175;-72
2020/12/02 07:43:30;;;;;;;39.58;20.92;;;2.30;82.20;;;;;;6145139;23;20202;-71
2020/12/02 07:45:59;;;;;;;39.95;21.80;;;2.30;81.80;;;;;;6150736;22;20209;-71
2020/12/02 07:48:51;;;;;;;40.47;22.50;;;2.30;82.30;;;;;;6146786;23;20313;-70
2020/12/02 07:51:22;;;;;;;40.55;24.75;;;2.30;81.50;;;;;;6149383;23;20164;-71
2020/12/02 07:53:57;;;;;;;38.95;21.33;;;2.20;80.80;;;;;;6148491;23;20164;-71
2020/12/02 07:56:40;;;;;;;40.75;23.25;;;2.20;81.70;;;;;;6150630;22;20438;-71
2020/12/02 07:59:14;;;;;;;43.60;21.75;;;2.30;81.60;;;;;;6119656;23;20630;-70
2020/12/02 08:02:01;;;;;;;38.10;21.98;;;2.30;81.20;;;;;;6115415;23;20172;-71
2020/12/02 08:04:35;;;;;;;37.50;22.80;;;2.30;81.20;;;;;;6083275;23;20226;-70
2020/12/02 08:07:04;;;;;;;38.42;20.50;;;2.30;81.50;;;;;;6104028;23;20887;-71
2020/12/02 08:09:37;;;;;;;41.85;21.42;;;2.30;81.10;;;;;;6108509;23;20169;-72
2020/12/02 08:12:07;;;;;;;35.70;19.75;;;2.30;80.40;;;;;;6104953;23;20240;-70
2020/12/02 08:14:37;;;;;;;38.72;20.50;;;2.20;80.10;;;;;;6107967;23;20175;-73
2020/12/02 08:17:12;;;;;;;33.60;19.63;;;2.20;80.80;;;;;;6103808;23;20176;-70
2020/12/02 08:19:42;;;;;;;36.08;18.10;;;2.20;79.60;;;;;;6104754;23;20215;-72
2020/12/02 08:22:19;;;;;;;34.28;18.60;;;2.20;79.60;;;;;;6105816;23;20245;-70
2020/12/02 08:24:47;;;;;;;36.20;19.85;;;2.10;79.80;;;;;;6102077;23;20192;-73
2020/12/02 08:27:16;;;;;;;42.15;22.80;;;2.10;80.50;;;;;;6107325;23;20210;-70
2020/12/02 08:29:48;;;;;;;43.45;22.60;;;2.10;80.50;;;;;;6102986;23;20200;-71
2020/12/02 08:32:21;;;;;;;42.17;20.33;;;2.10;80.30;;;;;;6107908;23;20168;-69
2020/12/02 08:34:47;;;;;;;37.75;19.83;;;2.00;80.10;;;;;;6101193;23;20527;-72
2020/12/02 08:37:42;;;;;;;40.13;20.92;;;1.90;80.10;;;;;;6115801;23;20169;-70
2020/12/02 08:40:34;;;;;;;37.83;19.05;;;1.90;80.60;;;;;;6117225;23;20215;-70
2020/12/02 08:53:04;;;;;;;46.85;21.80;;;1.70;82.30;;;;;;6120440;23;20249;-69
2020/12/02 08:55:46;;;;;;;41.83;21.30;;;1.70;82.80;;;;;;6121862;23;20157;-69
2020/12/02 08:59:10;;;;;;;34.65;18.67;;;1.80;82.60;;;;;;6144091;23;20237;-70
2020/12/02 09:01:47;;;;;;;33.67;19.58;;;1.80;81.70;;;;;;6150520;23;20192;-69
2020/12/02 09:04:58;;;;;;;29.55;17.52;;;1.80;81.30;;;;;;6147813;23;20653;-69
2020/12/02 09:07:28;;;;;;;41.03;19.20;;;1.80;81.70;;;;;;6151146;23;20179;-70
2020/12/02 09:09:58;;;;;;;37.90;19.60;;;1.80;82.30;;;;;;6152767;23;20206;-69
2020/12/02 09:12:26;;;;;;;45.88;22.63;;;1.80;81.10;;;;;;6150218;23;20198;-70
2020/12/02 09:15:01;;;;;;;46.70;20.52;;;1.80;81.40;;;;;;6152395;23;20149;-69
2020/12/02 09:17:28;;;;;;;30.95;19.75;;;1.80;81.20;;;;;;6123320;23;20516;-69
2020/12/02 09:20:33;;;;;;;37.85;19.35;;;1.80;81.40;;;;;;6149560;23;20152;-69
2020/12/02 09:22:59;;;;;;;37.00;20.08;;;1.90;81.30;;;;;;6151304;23;20195;-70
2020/12/02 09:25:26;;;;;;;39.58;20.92;;;1.90;81.40;;;;;;6150806;23;20171;-70
2020/12/02 09:38:10;;;;;;;37.60;20.40;;;1.90;81.20;;;;;;6151094;23;20238;-69
2020/12/02 09:47:22;;;;;;;35.72;20.77;;;2.00;80.60;;;;;;6151219;23;20178;-69
2020/12/02 09:49:55;;;;;;;35.95;19.65;;;2.00;81.00;;;;;;6150669;23;20447;-70
2020/12/02 09:59:13;;;;;;;47.70;21.48;;;2.00;79.40;;;;;;6148757;23;20622;-69
2020/12/02 10:02:13;;;;;;;49.78;22.50;;;2.00;79.60;;;;;;6121630;23;20583;-70
2020/12/02 10:08:11;;;;;;;44.72;21.98;;;1.80;79.10;;;;;;6028579;23;20238;-69
2020/12/02 10:17:47;;;;;;;44.90;23.55;;;1.70;80.60;;;;;;6115375;23;20184;-69
2020/12/02 10:20:55;;;;;;;41.38;22.27;;;1.60;80.70;;;;;;6118784;23;20168;-69
2020/12/02 10:33:51;;;;;;;46.13;22.33;;;1.90;80.50;;;;;;6120921;23;20168;-70
2020/12/02 10:39:53;;;;;;;45.03;22.95;;;1.80;79.70;;;;;;6122849;23;20152;-70
2020/12/02 10:43:05;;;;;;;37.35;19.58;;;1.80;79.70;;;;;;6117717;23;20165;-69
2020/12/02 10:45:37;;;;;;;43.15;23.58;;;1.80;79.40;;;;;;6121348;23;20643;-69
2020/12/02 10:51:51;;;;;;;42.40;20.85;;;1.70;80.10;;;;;;6121788;23;20202;-69
2020/12/02 10:54:24;;;;;;;42.97;21.23;;;1.60;80.40;;;;;;6120507;23;20165;-70
2020/12/02 10:56:56;;;;;;;34.15;20.58;;;1.60;80.90;;;;;;6119119;23;20164;-70
2020/12/02 10:59:26;;;;;;;36.17;18.17;;;1.60;80.80;;;;;;6123483;23;20149;-70
2020/12/02 11:01:55;;;;;;;41.00;22.25;;;1.60;80.90;;;;;;6149574;23;20591;-70
2020/12/02 11:05:03;;;;;;;31.40;17.17;;;1.70;81.20;;;;;;6151825;23;20176;-69
2020/12/02 11:11:14;;;;;;;32.17;17.15;;;1.80;80.90;;;;;;6151277;23;20152;-69
2020/12/02 11:14:06;;;;;;;33.70;19.25;;;1.90;80.40;;;;;;6150915;23;20152;-70
2020/12/02 11:19:51;;;;;;;38.00;18.77;;;1.90;80.20;;;;;;6151097;23;20174;-70
2020/12/02 11:26:12;;;;;;;32.30;17.92;;;1.80;79.80;;;;;;6148726;23;20179;-69
2020/12/02 11:39:13;;;;;;;35.10;16.75;;;1.80;79.60;;;;;;6150737;23;20139;-70
2020/12/02 11:41:59;;;;;;;32.75;18.15;;;1.80;80.20;;;;;;6151567;23;20190;-70
2020/12/02 11:44:41;;;;;;;35.60;17.73;;;1.80;80.40;;;;;;6151601;23;20184;-69
2020/12/02 11:54:21;;;;;;;30.08;17.13;;;1.90;79.40;;;;;;6151418;23;20462;-69
2020/12/02 11:56:52;;;;;;;35.33;19.75;;;1.90;79.70;;;;;;6150460;23;20164;-69
2020/12/02 11:59:21;;;;;;;31.80;16.30;;;1.90;79.60;;;;;;6151101;23;20155;-70
2020/12/02 12:02:19;;;;;;;30.50;17.83;;;2.00;79.80;;;;;;6123756;23;20159;-71
2020/12/02 12:04:59;;;;;;;32.90;17.63;;;2.00;79.40;;;;;;6145359;23;20215;-72
2020/12/02 12:07:35;;;;;;;31.60;17.10;;;2.00;79.00;;;;;;6138192;23;20246;-70
2020/12/02 12:10:06;;;;;;;32.67;17.40;;;2.00;79.20;;;;;;6134023;23;20669;-70
2020/12/02 12:12:44;;;;;;;26.85;15.98;;;2.10;79.50;;;;;;6137362;23;20676;-73
2020/12/02 12:15:26;;;;;;;35.63;19.83;;;2.10;79.10;;;;;;6136794;23;20229;-70
2020/12/02 12:17:55;;;;;;;35.20;16.60;;;2.20;78.20;;;;;;6131265;23;20168;-70
2020/12/02 12:20:24;;;;;;;38.83;17.63;;;2.20;77.70;;;;;;6137617;23;20203;-70
2020/12/02 12:23:00;;;;;;;37.30;19.15;;;2.10;78.40;;;;;;6130111;22;20199;-69
2020/12/02 12:25:30;;;;;;;33.17;18.00;;;2.20;79.00;;;;;;6135974;23;20223;-70
2020/12/02 12:28:00;;;;;;;31.58;17.42;;;2.20;78.20;;;;;;6128185;23;20171;-70
2020/12/02 12:30:26;;;;;;;35.72;17.58;;;2.20;78.30;;;;;;6137084;23;20203;-69
2020/12/02 12:33:07;;;;;;;39.10;18.50;;;2.20;77.90;;;;;;6128920;23;20698;-69
2020/12/02 12:35:39;;;;;;;29.33;16.80;;;2.20;78.10;;;;;;6135573;23;20517;-72
2020/12/02 12:38:20;;;;;;;36.42;18.80;;;2.20;78.10;;;;;;6133693;23;20225;-69
2020/12/02 12:40:50;;;;;;;31.20;16.00;;;2.20;78.60;;;;;;6133383;23;20168;-72
2020/12/02 12:43:19;;;;;;;35.00;17.20;;;2.20;78.50;;;;;;6137120;23;20626;-70
2020/12/02 12:45:49;;;;;;;30.65;18.60;;;2.20;78.60;;;;;;6132673;23;20168;-71
2020/12/02 12:48:19;;;;;;;39.92;19.98;;;2.20;77.80;;;;;;6137596;23;20271;-68
2020/12/02 12:50:49;;;;;;;34.20;18.20;;;2.20;77.70;;;;;;6131425;23;20524;-72
2020/12/02 12:53:17;;;;;;;32.08;18.23;;;2.10;77.70;;;;;;6136617;23;20241;-69
2020/12/02 12:55:44;;;;;;;33.25;17.73;;;2.10;77.80;;;;;;6131352;23;20170;-71
2020/12/02 12:58:14;;;;;;;31.88;17.15;;;2.00;78.20;;;;;;6137652;23;20171;-69
2020/12/02 13:00:43;;;;;;;37.67;20.00;;;2.00;78.80;;;;;;6136359;23;20191;-69
2020/12/02 13:03:17;;;;;;;36.40;16.60;;;2.00;78.80;;;;;;6148754;23;20152;-72
2020/12/02 13:06:01;;;;;;;36.33;18.08;;;2.00;78.80;;;;;;6150106;23;20166;-69
2020/12/02 13:08:39;;;;;;;28.75;15.65;;;2.00;78.50;;;;;;6147201;23;20168;-73
2020/12/02 13:11:10;;;;;;;31.83;17.33;;;2.00;78.90;;;;;;6149123;23;20187;-69
2020/12/02 13:14:26;;;;;;;28.73;14.70;;;2.00;78.50;;;;;;6146337;23;20176;-69
2020/12/02 13:17:00;;;;;;;31.50;16.75;;;2.00;78.60;;;;;;6148778;23;20199;-69
2020/12/02 13:19:47;;;;;;;41.13;18.73;;;2.00;78.80;;;;;;6145781;23;20168;-69
2020/12/02 13:22:24;;;;;;;29.23;16.33;;;2.00;78.80;;;;;;6126054;23;20152;-69
2020/12/02 13:24:56;;;;;;;34.90;16.15;;;1.90;78.50;;;;;;6146758;23;20237;-69
2020/12/02 13:30:20;;;;;;;32.97;17.90;;;1.90;78.90;;;;;;6149492;23;20708;-69
2020/12/02 13:32:54;;;;;;;35.08;18.38;;;1.80;78.90;;;;;;6149199;23;20218;-69
2020/12/02 13:35:23;;;;;;;37.03;19.40;;;1.80;79.00;;;;;;6150806;23;20549;-68
2020/12/02 13:37:57;;;;;;;41.78;18.25;;;1.80;79.70;;;;;;6150000;23;20148;-70
2020/12/02 13:40:24;;;;;;;30.58;18.02;;;1.70;79.60;;;;;;6147853;23;20159;-70
2020/12/02 13:43:26;;;;;;;42.60;20.48;;;1.70;79.80;;;;;;6149108;23;20172;-70
2020/12/02 13:45:53;;;;;;;34.92;18.00;;;1.80;80.30;;;;;;6151615;23;20238;-69
2020/12/02 13:49:01;;;;;;;37.30;19.00;;;1.90;80.20;;;;;;6148867;23;20221;-69
2020/12/02 13:54:34;;;;;;;29.48;16.65;;;1.90;79.80;;;;;;6150402;23;20229;-69
2020/12/02 13:57:06;;;;;;;32.28;17.30;;;2.00;80.20;;;;;;6149039;23;20167;-69
2020/12/02 13:59:50;;;;;;;35.38;18.75;;;2.00;79.90;;;;;;6149098;23;21505;-71
2020/12/02 14:02:28;;;;;;;29.63;17.48;;;2.00;79.60;;;;;;6150052;23;20186;-69
2020/12/02 14:05:26;;;;;;;37.45;17.98;;;2.00;79.00;;;;;;6149567;23;20412;-69
2020/12/02 14:07:56;;;;;;;34.78;18.33;;;1.90;79.40;;;;;;6127900;23;20168;-69
2020/12/02 14:10:24;;;;;;;36.55;20.40;;;1.90;79.20;;;;;;6148913;23;20183;-69
2020/12/02 14:13:23;;;;;;;35.00;18.30;;;1.80;79.30;;;;;;6151124;23;20163;-69
2020/12/02 14:15:50;;;;;;;36.47;18.83;;;1.80;79.40;;;;;;6150147;23;20243;-69
2020/12/02 14:18:17;;;;;;;38.47;19.98;;;1.70;79.80;;;;;;6151128;23;20159;-68
2020/12/02 14:20:44;;;;;;;35.65;18.80;;;1.80;80.60;;;;;;6150582;23;20213;-69
2020/12/02 14:23:52;;;;;;;37.13;18.00;;;1.80;80.00;;;;;;6151209;23;20148;-69
2020/12/02 14:26:20;;;;;;;34.58;18.80;;;1.90;80.20;;;;;;6148896;23;20545;-69
2020/12/02 14:32:10;;;;;;;34.13;17.20;;;1.90;79.70;;;;;;6148034;23;20467;-68
2020/12/02 14:34:37;;;;;;;28.75;16.70;;;1.90;79.30;;;;;;6148084;23;20633;-69
2020/12/02 14:37:14;;;;;;;33.25;16.58;;;1.90;79.20;;;;;;6149357;23;20254;-70
2020/12/02 14:39:41;;;;;;;32.25;17.02;;;1.90;78.90;;;;;;6151238;23;20152;-69
2020/12/02 14:42:50;;;;;;;32.78;18.10;;;1.90;79.20;;;;;;6151163;23;20574;-69
2020/12/02 14:45:17;;;;;;;43.78;23.55;;;1.90;78.60;;;;;;6151474;23;20191;-69
2020/12/02 14:48:25;;;;;;;40.28;18.23;;;1.90;78.60;;;;;;6149473;23;20164;-71
2020/12/02 14:50:52;;;;;;;38.10;19.50;;;1.90;78.60;;;;;;6148088;23;20630;-69
2020/12/02 15:03:04;;;;;;;37.03;18.70;;;2.00;78.40;;;;;;6147363;23;20225;-69
2020/12/02 15:05:32;;;;;;;37.00;17.55;;;2.00;78.50;;;;;;6150880;23;20229;-69
2020/12/02 15:08:54;;;;;;;38.90;19.50;;;2.00;78.60;;;;;;6150188;23;20171;-69
2020/12/02 15:11:32;;;;;;;29.42;19.23;;;2.00;79.00;;;;;;6151013;23;20148;-69
2020/12/02 15:14:00;;;;;;;38.80;18.88;;;2.10;78.90;;;;;;6123996;23;20168;-68
2020/12/02 15:16:30;;;;;;;30.85;18.17;;;2.00;78.80;;;;;;6150361;23;20515;-72
2020/12/02 15:18:58;;;;;;;26.40;17.25;;;2.00;78.80;;;;;;6149999;23;20160;-69
2020/12/02 15:21:26;;;;;;;30.92;17.95;;;2.00;78.50;;;;;;6151311;23;20466;-69
2020/12/02 15:24:23;;;;;;;29.98;16.77;;;2.00;78.80;;;;;;6145099;23;20705;-69
2020/12/02 15:26:56;;;;;;;30.15;18.08;;;2.00;78.80;;;;;;6142503;23;20172;-69
2020/12/02 15:29:23;;;;;;;36.63;17.35;;;1.90;79.00;;;;;;6143772;23;20167;-69
2020/12/02 15:32:26;;;;;;;32.80;19.58;;;2.00;79.30;;;;;;6143288;23;20168;-69
2020/12/02 15:34:54;;;;;;;33.17;17.25;;;2.00;79.40;;;;;;6138720;23;20246;-69
2020/12/02 15:37:40;;;;;;;33.20;18.55;;;2.00;78.60;;;;;;6142964;23;20522;-69
2020/12/02 15:40:24;;;;;;;29.80;20.02;;;2.00;78.50;;;;;;6118454;23;20629;-69
2020/12/02 15:43:19;;;;;;;36.25;20.40;;;2.00;79.10;;;;;;6116498;23;20168;-70
2020/12/02 15:45:50;;;;;;;33.35;20.40;;;2.00;79.20;;;;;;6115580;23;20650;-69
2020/12/02 15:48:29;;;;;;;40.08;19.45;;;2.00;79.00;;;;;;6144966;23;20183;-69
2020/12/02 15:51:04;;;;;;;34.05;17.60;;;2.10;79.10;;;;;;6142126;23;20521;-69
2020/12/02 15:54:07;;;;;;;35.65;19.80;;;2.00;79.40;;;;;;6136652;23;20168;-72
2020/12/02 15:59:42;;;;;;;35.63;21.85;;;2.10;79.50;;;;;;6138086;23;20265;-72
2020/12/02 16:02:09;;;;;;;37.17;18.95;;;2.00;79.50;;;;;;6141687;23;20225;-70
2020/12/02 16:04:43;;;;;;;37.13;21.48;;;2.10;79.60;;;;;;6139874;23;20188;-69
2020/12/02 16:10:23;;;;;;;31.00;17.02;;;2.00;79.50;;;;;;6150991;23;20190;-69
2020/12/02 16:16:11;;;;;;;40.10;18.95;;;2.00;80.10;;;;;;6151029;23;20550;-69
2020/12/02 16:18:40;;;;;;;35.50;20.70;;;1.90;79.80;;;;;;6145475;23;20207;-69
2020/12/02 16:21:46;;;;;;;39.15;20.27;;;1.90;80.10;;;;;;6148573;23;20164;-69
2020/12/02 16:24:14;;;;;;;35.67;21.23;;;1.80;80.00;;;;;;6145890;23;20187;-71
2020/12/02 16:26:44;;;;;;;35.22;20.40;;;1.90;80.30;;;;;;6141192;23;20164;-70
2020/12/02 16:32:37;;;;;;;33.63;18.90;;;1.90;80.30;;;;;;6150257;23;20617;-69
2020/12/02 16:35:10;;;;;;;39.83;22.38;;;1.90;79.80;;;;;;6143100;23;20167;-72
2020/12/02 16:37:39;;;;;;;39.38;22.65;;;1.90;79.80;;;;;;6137680;22;20266;-73
2020/12/02 16:40:10;;;;;;;39.22;22.38;;;1.80;79.50;;;;;;6145725;23;20172;-70
2020/12/02 16:49:35;;;;;;;39.08;23.75;;;1.80;79.50;;;;;;6149441;23;20151;-69
2020/12/02 16:52:08;;;;;;;47.33;25.30;;;1.80;79.40;;;;;;6148747;23;20217;-70
2020/12/02 16:58:12;;;;;;;38.50;24.70;;;1.90;79.40;;;;;;6149853;23;20159;-70
2020/12/02 17:00:45;;;;;;;43.63;23.77;;;1.90;78.90;;;;;;6109668;23;20229;-70
2020/12/02 17:06:40;;;;;;;39.55;23.33;;;1.90;78.80;;;;;;6119210;23;20180;-71
2020/12/02 17:09:09;;;;;;;42.45;23.73;;;1.90;79.40;;;;;;6120277;23;20149;-69
2020/12/02 17:12:07;;;;;;;42.67;23.13;;;1.90;78.50;;;;;;6115314;23;20172;-70
2020/12/02 17:18:15;;;;;;;41.22;22.42;;;1.90;78.50;;;;;;6180272;23;20638;-70
2020/12/02 17:21:28;;;;;;;47.03;25.77;;;1.90;78.50;;;;;;6117171;23;20176;-70
2020/12/02 17:24:41;;;;;;;43.42;25.30;;;1.90;78.10;;;;;;6122145;23;20502;-70
2020/12/02 17:40:48;;;;;;;46.40;32.42;;;1.80;78.30;;;;;;6118474;23;20171;-70
2020/12/02 17:47:03;;;;;;;56.42;32.90;;;1.70;78.50;;;;;;6183870;23;20171;-69
2020/12/02 17:49:43;;;;;;;51.67;29.00;;;1.70;78.80;;;;;;6182877;23;20245;-70
2020/12/02 17:59:37;;;;;;;45.30;21.38;;;1.70;79.30;;;;;;6122753;23;20495;-69
2020/12/02 18:05:53;;;;;;;41.40;21.20;;;1.80;79.20;;;;;;6119599;23;20184;-70
2020/12/02 18:47:39;;;;;;;45.10;23.02;;;1.70;78.90;;;;;;6121658;23;20235;-70
2020/12/02 18:50:09;;;;;;;42.67;23.45;;;1.70;78.20;;;;;;6118360;23;20271;-70
2020/12/02 18:53:31;;;;;;;41.33;21.27;;;1.60;78.40;;;;;;6121637;23;20153;-69
2020/12/02 18:58:57;;;;;;;40.35;23.70;;;1.60;79.00;;;;;;6120281;23;20476;-70
2020/12/02 19:01:30;;;;;;;41.83;25.63;;;1.60;78.70;;;;;;6135791;23;20270;-70
2020/12/02 19:03:59;;;;;;;52.10;24.88;;;1.60;78.50;;;;;;6146165;23;20168;-70
2020/12/02 19:06:33;;;;;;;41.53;21.67;;;1.50;78.30;;;;;;6147940;23;20183;-70
2020/12/02 19:09:21;;;;;;;41.70;25.65;;;1.50;78.30;;;;;;6031721;23;20171;-70
2020/12/02 19:15:13;;;;;;;34.95;22.30;;;1.50;78.10;;;;;;6139661;23;20255;-70
2020/12/02 19:17:55;;;;;;;41.08;21.27;;;1.50;78.20;;;;;;6147425;23;20160;-73
2020/12/02 19:26:57;;;;;;;35.55;23.73;;;1.50;77.30;;;;;;6150965;23;20606;-70
2020/12/02 19:36:45;;;;;;;42.97;23.35;;;1.40;77.60;;;;;;6148860;23;20921;-70
2020/12/02 19:39:22;;;;;;;45.10;23.63;;;1.40;78.10;;;;;;6151553;23;20151;-70
2020/12/02 19:48:42;;;;;;;43.25;22.73;;;1.40;77.70;;;;;;6150904;23;20178;-70
2020/12/02 19:51:13;;;;;;;38.80;22.10;;;1.40;77.90;;;;;;6147893;23;20175;-70
2020/12/02 19:57:44;;;;;;;44.60;23.17;;;1.30;77.30;;;;;;6149782;23;20632;-70
2020/12/02 20:00:14;;;;;;;35.45;20.98;;;1.40;77.90;;;;;;6150019;23;20235;-70
2020/12/02 20:02:58;;;;;;;38.65;22.70;;;1.40;77.70;;;;;;6150052;23;20158;-70
2020/12/02 20:05:57;;;;;;;45.22;25.05;;;1.40;77.50;;;;;;6149947;23;20229;-70
2020/12/02 20:12:33;;;;;;;39.42;21.85;;;1.40;77.40;;;;;;6061102;23;20169;-70
2020/12/02 20:19:00;;;;;;;45.10;22.52;;;1.40;76.60;;;;;;6060079;23;20185;-70
2020/12/02 20:21:49;;;;;;;34.92;20.67;;;1.40;77.10;;;;;;6064627;23;20154;-70
2020/12/02 20:27:50;;;;;;;41.45;24.70;;;1.40;77.10;;;;;;6150765;23;20597;-70
2020/12/02 20:30:28;;;;;;;39.78;21.15;;;1.40;76.90;;;;;;6148604;23;20167;-70
2020/12/02 20:32:57;;;;;;;39.53;21.52;;;1.40;76.30;;;;;;6120189;23;20271;-70